createdAt,value
2024-02-12T02:57:44.422Z,96505.78
2024-02-12T03:46:41.417Z,96539.72
2024-02-12T03:51:20.834Z,96554.50
2024-02-12T03:57:06.005Z,96565.19
2024-02-12T04:01:04.637Z,96567.94
2024-02-12T04:05:10.599Z,96571.72
2024-02-12T04:09:15.223Z,96573.63
2024-02-12T04:13:54.585Z,96578.84
2024-02-12T04:19:00.413Z,96578.25
2024-02-12T04:23:09.176Z,96584.41
2024-02-12T04:27:14.743Z,96589.75
2024-02-12T04:31:18.167Z,96597.44
2024-02-12T04:35:21.514Z,96604.31
2024-02-12T04:39:27.808Z,96599.31
2024-02-12T04:43:32.624Z,96600.41
2024-02-12T04:47:35.981Z,96608.13
2024-02-12T04:51:39.740Z,96612.50
2024-02-12T04:55:43.294Z,96610.13
2024-02-12T04:59:48.128Z,96609.41
2024-02-12T05:03:51.885Z,96609.66
2024-02-12T05:07:55.431Z,96611.53
2024-02-12T05:11:59.030Z,96608.94
2024-02-12T05:16:08.710Z,96610.59
2024-02-12T05:20:30.320Z,96614.88
2024-02-12T05:24:33.803Z,96608.69
2024-02-12T05:28:37.116Z,96609.41
2024-02-12T05:32:41.962Z,96604.19
2024-02-12T05:36:45.620Z,96600.16
2024-02-12T05:40:49.032Z,96603.59
2024-02-12T05:44:52.393Z,96615.81
2024-02-12T05:48:59.238Z,96614.88
2024-02-12T05:53:04.126Z,96613.19
2024-02-12T05:57:08.321Z,96619.09
2024-02-12T06:01:13.229Z,96622.56
2024-02-12T06:05:18.231Z,96618.16
2024-02-12T06:09:21.572Z,96617.34
2024-02-12T06:13:25.049Z,96620.09
2024-02-12T06:17:28.565Z,96617.47
2024-02-12T06:21:33.465Z,96627.19
2024-02-12T06:25:36.763Z,96622.78
2024-02-12T06:29:40.760Z,96632.41
2024-02-12T06:33:44.247Z,96630.72
2024-02-12T06:37:49.193Z,96634.19
2024-02-12T06:41:52.420Z,96642.69
2024-02-12T06:45:55.841Z,96649.59
2024-02-12T06:49:59.250Z,96655.63
2024-02-12T06:54:03.904Z,96662.38
2024-02-12T06:58:09.488Z,96666.56
2024-02-12T07:02:13.735Z,96669.25
2024-02-12T07:06:17.302Z,96678.88
2024-02-12T07:10:24.427Z,96684.09
2024-02-12T07:14:28.576Z,96683.47
2024-02-12T07:18:32.326Z,96691.19
2024-02-12T07:22:35.796Z,96698.31
2024-02-12T07:26:42.071Z,96707.06
2024-02-12T07:30:46.458Z,96702.78
2024-02-12T07:34:51.471Z,96702.06
2024-02-12T07:38:54.982Z,96717.63
2024-02-12T07:43:00.558Z,96726.25
2024-02-12T07:47:06.657Z,96723.66
2024-02-12T07:51:11.584Z,96723.66
2024-02-12T07:55:15.383Z,96727.94
2024-02-12T07:59:21.389Z,96740.03
2024-02-12T08:03:25.042Z,96745.25
2024-02-12T08:07:36.621Z,96748.53
2024-02-12T08:11:51.349Z,96757.09
2024-02-12T08:15:56.309Z,96758.16
2024-02-12T08:19:59.866Z,96769.19
2024-02-12T08:24:05.032Z,96766.47
2024-02-12T08:28:09.572Z,96777.50
2024-02-12T08:32:14.601Z,96775.84
2024-02-12T08:36:18.681Z,96791.50
2024-02-12T08:40:23.632Z,96784.41
2024-02-12T08:44:27.608Z,96780.81
2024-02-12T08:48:33.349Z,96788.31
2024-02-12T08:52:36.819Z,96795.81
2024-02-12T08:56:41.262Z,96794.75
2024-02-12T09:00:46.345Z,96802.44
2024-02-12T09:04:52.361Z,96803.88
2024-02-12T09:08:55.872Z,96800.13
2024-02-12T09:13:01.319Z,96803.22
2024-02-12T09:17:05.176Z,96806.06
2024-02-12T09:21:10.033Z,96810.00
2024-02-12T09:25:14.385Z,96805.41
2024-02-12T09:29:20.835Z,96808.25
2024-02-12T09:33:24.262Z,96803.50
2024-02-12T09:37:31.293Z,96811.38
2024-02-12T09:41:36.773Z,96818.25
2024-02-12T09:45:45.331Z,96821.34
2024-02-12T09:49:49.616Z,96821.81
2024-02-12T09:53:57.064Z,96822.53
2024-02-12T09:58:00.880Z,96820.28
2024-02-12T10:02:06.759Z,96819.47
2024-02-12T10:06:10.672Z,96823.72
2024-02-12T10:10:16.322Z,96817.19
2024-02-12T10:14:31.249Z,96816.09
2024-02-12T10:18:34.723Z,96828.09
2024-02-12T10:22:39.702Z,96826.06
2024-02-12T10:26:44.626Z,96825.25
2024-02-12T10:30:48.994Z,96826.94
2024-02-12T10:34:55.683Z,96821.19
2024-02-12T10:39:02.698Z,96820.00
2024-02-12T10:43:08.696Z,96823.69
2024-02-12T10:47:12.492Z,96823.41
2024-02-12T10:51:17.069Z,96824.81
2024-02-12T10:55:21.572Z,96827.16
2024-02-12T10:59:26.979Z,96825.81
2024-02-12T11:03:33.825Z,96829.28
2024-02-12T11:07:39.274Z,96825.44
2024-02-12T11:11:48.098Z,96824.66
2024-02-12T11:15:54.146Z,96822.78
2024-02-12T11:19:58.178Z,96827.28
2024-02-12T11:24:08.537Z,96830.16
2024-02-12T11:28:16.599Z,96826.38
2024-02-12T11:32:24.449Z,96832.06
2024-02-12T11:36:29.152Z,96833.97
2024-02-12T11:40:33.325Z,96835.53
2024-02-12T11:44:36.734Z,96836.28
2024-02-12T11:48:41.661Z,96838.16
2024-02-12T11:52:45.078Z,96829.59
2024-02-12T11:56:48.561Z,96832.94
2024-02-12T12:00:52.135Z,96839.34
2024-02-12T12:04:57.110Z,96834.56
2024-02-12T12:09:00.914Z,96834.44
2024-02-12T12:13:05.081Z,96841.94
2024-02-12T12:17:29.463Z,96834.53
2024-02-12T12:21:35.576Z,96837.66
2024-02-12T12:25:39.047Z,96847.13
2024-02-12T12:29:43.504Z,96838.31
2024-02-12T12:33:46.858Z,96840.56
2024-02-12T12:37:53.131Z,96840.88
2024-02-12T12:41:56.161Z,96837.66
2024-02-12T12:45:59.313Z,96837.53
2024-02-12T12:50:02.645Z,96844.59
2024-02-12T12:54:07.385Z,96847.16
2024-02-12T12:58:10.457Z,96852.34
2024-02-12T13:02:13.820Z,96849.53
2024-02-12T13:06:19.213Z,96853.44
2024-02-12T13:10:23.927Z,96855.09
2024-02-12T13:14:27.102Z,96862.75
2024-02-12T13:18:31.725Z,96859.97
2024-02-12T13:22:34.993Z,96866.91
2024-02-12T13:26:39.549Z,96860.09
2024-02-12T13:30:44.503Z,96865.56
2024-02-12T13:34:47.926Z,96875.88
2024-02-12T13:38:52.814Z,96883.19
2024-02-12T13:42:58.359Z,96877.38
2024-02-12T13:47:02.164Z,96883.91
2024-02-12T13:51:06.479Z,96887.03
2024-02-12T13:55:11.740Z,96889.06
2024-02-12T13:59:18.164Z,96891.13
2024-02-12T14:03:21.687Z,96897.31
2024-02-12T14:07:24.809Z,96907.16
2024-02-12T14:11:29.448Z,96908.84
2024-02-12T14:16:03.777Z,96915.16
2024-02-12T14:20:00.290Z,96918.88
2024-02-12T14:24:03.498Z,96929.47
2024-02-12T14:28:06.935Z,96937.00
2024-02-12T14:32:38.462Z,96943.97
2024-02-12T14:36:36.224Z,96943.19
2024-02-12T14:40:39.318Z,96950.81
2024-02-12T14:44:42.557Z,96957.28
2024-02-12T14:48:47.709Z,96961.78
2024-02-12T14:52:50.864Z,96960.16
2024-02-12T14:56:53.869Z,96963.47
2024-02-12T15:00:57.100Z,96972.84
2024-02-12T15:05:01.588Z,96982.13
2024-02-12T15:09:07.624Z,96979.50
2024-02-12T15:13:10.966Z,96993.56
2024-02-12T15:17:17.262Z,96988.34
2024-02-12T15:21:21.876Z,97004.03
2024-02-12T15:25:36.899Z,97005.69
2024-02-12T15:29:41.084Z,97011.19
2024-02-12T15:33:45.341Z,97017.75
2024-02-12T15:37:49.754Z,97036.78
2024-02-12T15:41:52.746Z,97032.53
2024-02-12T15:45:59.389Z,97038.34
2024-02-12T15:50:02.347Z,97041.69
2024-02-12T15:54:07.563Z,97038.63
2024-02-12T16:27:13.782Z,97116.78
2024-02-12T16:38:38.554Z,97138.59
2024-02-12T16:42:44.027Z,97144.19
2024-02-12T16:51:42.371Z,97155.06
2024-02-12T16:56:38.828Z,97176.22
2024-02-12T17:01:47.306Z,97172.94
2024-02-12T17:11:42.016Z,97195.25
2024-02-12T17:15:45.331Z,97199.66
2024-02-12T17:19:48.711Z,97206.75
2024-02-12T17:23:53.314Z,97217.31
2024-02-12T17:27:58.644Z,97226.31
2024-02-12T17:32:02.451Z,97234.22
2024-02-12T17:36:06.622Z,97238.63
2024-02-12T17:40:11.692Z,97249.06
2024-02-12T17:44:20.033Z,97256.16
2024-02-12T17:48:23.238Z,97260.78
2024-02-12T17:52:26.495Z,97259.94
2024-02-12T17:56:37.318Z,97275.81
2024-02-12T18:00:45.839Z,97287.50
2024-02-12T18:04:49.249Z,97299.22
2024-02-12T18:09:00.292Z,97304.75
2024-02-12T18:13:04.968Z,97304.22
2024-02-12T18:17:13.287Z,97305.25
2024-02-12T18:21:18.771Z,97320.16
2024-02-12T18:25:37.318Z,97330.06
2024-02-12T18:29:40.602Z,97332.38
2024-02-12T18:33:45.780Z,97346.00
2024-02-12T18:37:51.411Z,97349.22
2024-02-12T18:41:58.154Z,97360.69
2024-02-12T18:46:01.547Z,97360.97
2024-02-12T18:50:08.442Z,97374.03
2024-02-12T18:54:12.103Z,97375.25
2024-02-12T18:58:15.219Z,97381.41
2024-02-12T19:03:10.240Z,97382.25
2024-02-12T19:07:20.595Z,97390.28
2024-02-12T19:11:28.925Z,97399.22
2024-02-12T19:15:34.779Z,97403.88
2024-02-12T19:19:39.413Z,97425.03
2024-02-12T19:23:53.384Z,97421.03
2024-02-12T19:27:59.125Z,97439.59
2024-02-12T19:32:09.977Z,97445.16
2024-02-12T19:36:14.781Z,97451.59
2024-02-12T19:40:20.500Z,97462.22
2024-02-12T19:44:31.072Z,97469.28
2024-02-12T19:48:35.277Z,97481.47
2024-02-12T19:58:12.769Z,97493.09
2024-02-12T20:04:45.636Z,97505.44
2024-02-12T20:06:59.292Z,97508.78
2024-02-12T20:34:00.926Z,97541.75
2024-02-12T20:38:09.273Z,97541.09
2024-02-12T20:42:13.904Z,97547.13
2024-02-12T20:46:19.252Z,97560.09
2024-02-12T20:50:24.851Z,97560.91
2024-02-12T21:04:50.409Z,97593.81
2024-02-12T21:08:57.628Z,97604.28
2024-02-12T21:13:01.240Z,97605.47
2024-02-12T21:17:04.808Z,97611.69
2024-02-12T21:21:09.931Z,97619.50
2024-02-12T21:25:15.614Z,97622.22
2024-02-12T21:29:20.192Z,97630.03
2024-02-12T21:33:23.706Z,97634.41
2024-02-12T21:37:27.086Z,97633.56
2024-02-12T21:41:52.326Z,97638.78
2024-02-12T21:45:56.679Z,97631.06
2024-02-12T21:49:59.951Z,97639.69
2024-02-12T21:54:03.851Z,97645.84
2024-02-12T21:58:10.912Z,97650.88
2024-02-12T22:02:15.580Z,97664.81
2024-02-12T22:06:19.237Z,97659.81
2024-02-12T22:10:22.538Z,97662.47
2024-02-12T22:14:27.301Z,97665.34
2024-02-12T22:18:30.692Z,97672.75
2024-02-12T22:22:33.997Z,97680.91
2024-02-12T22:26:37.663Z,97682.94
2024-02-12T22:30:42.586Z,97685.72
2024-02-12T22:34:46.946Z,97689.41
2024-02-12T22:38:50.388Z,97701.00
2024-02-12T22:42:54.020Z,97702.19
2024-02-12T22:46:58.790Z,97713.66
2024-02-12T22:51:02.008Z,97722.47
2024-02-12T22:55:05.774Z,97728.88
2024-02-12T22:59:09.041Z,97732.72
2024-02-12T23:03:13.750Z,97751.16
2024-02-12T23:07:17.181Z,97749.06
2024-02-12T23:11:20.658Z,97751.97
2024-02-12T23:15:24.166Z,97756.50
2024-02-12T23:19:28.803Z,97760.19
2024-02-12T23:23:32.508Z,97765.53
2024-02-12T23:27:36.242Z,97775.28
2024-02-12T23:31:39.380Z,97785.28
2024-02-12T23:35:44.038Z,97794.31
2024-02-12T23:39:47.216Z,97789.56
2024-02-12T23:43:50.500Z,97796.19
2024-02-12T23:47:53.847Z,97798.28
2024-02-12T23:51:58.719Z,97808.59
2024-02-12T23:56:02.095Z,97807.97
